sensor_id;sensor_type;location;lat;lon;timestamp;P1;durP1;ratioP1;P2;durP2;ratioP2
37777;SDS011;23615;51.506;7.678;2024-03-02T00:02:11;1.03;;;0.83;;
37777;SDS011;23615;51.506;7.678;2024-03-02T00:04:36;0.98;;;0.40;;
37777;SDS011;23615;51.506;7.678;2024-03-02T00:07:02;0.80;;;0.63;;
37777;SDS011;23615;51.506;7.678;2024-03-02T00:09:27;0.60;;;0.50;;
37777;SDS011;23615;51.506;7.678;2024-03-02T00:11:54;1.08;;;0.50;;
37777;SDS011;23615;51.506;7.678;2024-03-02T00:14:19;0.70;;;0.60;;
37777;SDS011;23615;51.506;7.678;2024-03-02T00:16:45;0.75;;;0.60;;
37777;SDS011;23615;51.506;7.678;2024-03-02T00:19:11;0.70;;;0.50;;
37777;SDS011;23615;51.506;7.678;2024-03-02T00:21:36;1.50;;;0.68;;
37777;SDS011;23615;51.506;7.678;2024-03-02T00:24:06;0.80;;;0.47;;
37777;SDS011;23615;51.506;7.678;2024-03-02T00:26:44;0.93;;;0.40;;
37777;SDS011;23615;51.506;7.678;2024-03-02T00:29:15;1.23;;;0.60;;
37777;SDS011;23615;51.506;7.678;2024-03-02T00:31:41;0.30;;;0.30;;
37777;SDS011;23615;51.506;7.678;2024-03-02T00:34:06;1.77;;;0.60;;
37777;SDS011;23615;51.506;7.678;2024-03-02T00:36:32;1.38;;;0.50;;
37777;SDS011;23615;51.506;7.678;2024-03-02T00:38:58;1.08;;;0.40;;
37777;SDS011;23615;51.506;7.678;2024-03-02T00:41:25;1.80;;;0.60;;
37777;SDS011;23615;51.506;7.678;2024-03-02T00:46:27;1.40;;;0.50;;
37777;SDS011;23615;51.506;7.678;2024-03-02T00:48:59;0.50;;;0.40;;
37777;SDS011;23615;51.506;7.678;2024-03-02T00:51:46;1.33;;;0.45;;
37777;SDS011;23615;51.506;7.678;2024-03-02T00:54:15;1.00;;;0.50;;
37777;SDS011;23615;51.506;7.678;2024-03-02T00:56:45;1.60;;;0.50;;
37777;SDS011;23615;51.506;7.678;2024-03-02T00:59:12;0.82;;;0.50;;
37777;SDS011;23615;51.506;7.678;2024-03-02T01:01:37;0.60;;;0.40;;
37777;SDS011;23615;51.506;7.678;2024-03-02T01:04:03;0.57;;;0.50;;
37777;SDS011;23615;51.506;7.678;2024-03-02T01:06:28;1.10;;;0.60;;
37777;SDS011;23615;51.506;7.678;2024-03-02T01:08:54;0.57;;;0.37;;
37777;SDS011;23615;51.506;7.678;2024-03-02T01:11:19;0.73;;;0.50;;
37777;SDS011;23615;51.506;7.678;2024-03-02T01:13:47;1.40;;;0.40;;
37777;SDS011;23615;51.506;7.678;2024-03-02T01:16:12;0.40;;;0.30;;
37777;SDS011;23615;51.506;7.678;2024-03-02T01:18:38;0.77;;;0.40;;
37777;SDS011;23615;51.506;7.678;2024-03-02T01:21:03;0.67;;;0.40;;
37777;SDS011;23615;51.506;7.678;2024-03-02T01:23:28;1.30;;;0.50;;
37777;SDS011;23615;51.506;7.678;2024-03-02T01:25:54;0.50;;;0.37;;
37777;SDS011;23615;51.506;7.678;2024-03-02T01:28:20;0.50;;;0.40;;
37777;SDS011;23615;51.506;7.678;2024-03-02T01:30:45;0.40;;;0.32;;
37777;SDS011;23615;51.506;7.678;2024-03-02T01:33:11;0.32;;;0.30;;
37777;SDS011;23615;51.506;7.678;2024-03-02T01:35:36;0.20;;;0.20;;
37777;SDS011;23615;51.506;7.678;2024-03-02T01:38:02;0.63;;;0.20;;
37777;SDS011;23615;51.506;7.678;2024-03-02T01:40:28;0.30;;;0.30;;
37777;SDS011;23615;51.506;7.678;2024-03-02T01:42:54;0.30;;;0.20;;
37777;SDS011;23615;51.506;7.678;2024-03-02T01:45:20;0.20;;;0.20;;
37777;SDS011;23615;51.506;7.678;2024-03-02T01:47:46;0.30;;;0.20;;
37777;SDS011;23615;51.506;7.678;2024-03-02T01:50:11;0.40;;;0.20;;
37777;SDS011;23615;51.506;7.678;2024-03-02T01:52:38;0.38;;;0.20;;
37777;SDS011;23615;51.506;7.678;2024-03-02T01:55:04;0.30;;;0.20;;
37777;SDS011;23615;51.506;7.678;2024-03-02T01:57:29;0.52;;;0.20;;
37777;SDS011;23615;51.506;7.678;2024-03-02T01:59:55;0.43;;;0.30;;
37777;SDS011;23615;51.506;7.678;2024-03-02T02:02:20;0.50;;;0.30;;
37777;SDS011;23615;51.506;7.678;2024-03-02T02:04:46;0.20;;;0.20;;
37777;SDS011;23615;51.506;7.678;2024-03-02T02:07:12;0.40;;;0.30;;
37777;SDS011;23615;51.506;7.678;2024-03-02T02:09:39;1.30;;;0.30;;
37777;SDS011;23615;51.506;7.678;2024-03-02T02:12:08;1.53;;;0.40;;
37777;SDS011;23615;51.506;7.678;2024-03-02T02:14:34;0.75;;;0.52;;
37777;SDS011;23615;51.506;7.678;2024-03-02T02:17:00;1.33;;;0.40;;
37777;SDS011;23615;51.506;7.678;2024-03-02T02:19:25;0.40;;;0.30;;
37777;SDS011;23615;51.506;7.678;2024-03-02T02:21:51;1.60;;;0.30;;
37777;SDS011;23615;51.506;7.678;2024-03-02T02:24:16;0.53;;;0.30;;
37777;SDS011;23615;51.506;7.678;2024-03-02T02:26:41;0.40;;;0.17;;
37777;SDS011;23615;51.506;7.678;2024-03-02T02:29:07;1.10;;;0.20;;
37777;SDS011;23615;51.506;7.678;2024-03-02T02:31:38;0.40;;;0.40;;
37777;SDS011;23615;51.506;7.678;2024-03-02T02:34:05;0.38;;;0.20;;
37777;SDS011;23615;51.506;7.678;2024-03-02T02:36:31;0.65;;;0.10;;
37777;SDS011;23615;51.506;7.678;2024-03-02T02:38:57;0.40;;;0.20;;
37777;SDS011;23615;51.506;7.678;2024-03-02T02:41:28;0.30;;;0.13;;
37777;SDS011;23615;51.506;7.678;2024-03-02T02:43:53;0.30;;;0.20;;
37777;SDS011;23615;51.506;7.678;2024-03-02T02:46:19;0.10;;;0.10;;
37777;SDS011;23615;51.506;7.678;2024-03-02T02:48:44;0.30;;;0.20;;
37777;SDS011;23615;51.506;7.678;2024-03-02T02:51:09;0.10;;;0.10;;
37777;SDS011;23615;51.506;7.678;2024-03-02T02:53:35;0.20;;;0.20;;
37777;SDS011;23615;51.506;7.678;2024-03-02T02:56:00;0.37;;;0.10;;
37777;SDS011;23615;51.506;7.678;2024-03-02T02:58:25;0.30;;;0.20;;
37777;SDS011;23615;51.506;7.678;2024-03-02T03:00:51;0.60;;;0.10;;
37777;SDS011;23615;51.506;7.678;2024-03-02T03:03:16;0.20;;;0.20;;
37777;SDS011;23615;51.506;7.678;2024-03-02T03:05:41;0.30;;;0.20;;
37777;SDS011;23615;51.506;7.678;2024-03-02T03:08:06;0.30;;;0.20;;
37777;SDS011;23615;51.506;7.678;2024-03-02T03:10:34;0.90;;;0.20;;
37777;SDS011;23615;51.506;7.678;2024-03-02T03:12:59;0.77;;;0.13;;
37777;SDS011;23615;51.506;7.678;2024-03-02T03:15:24;0.10;;;0.10;;
37777;SDS011;23615;51.506;7.678;2024-03-02T03:17:50;0.20;;;0.20;;
37777;SDS011;23615;51.506;7.678;2024-03-02T03:20:15;0.30;;;0.20;;
37777;SDS011;23615;51.506;7.678;2024-03-02T03:22:41;0.40;;;0.30;;
37777;SDS011;23615;51.506;7.678;2024-03-02T03:25:06;0.53;;;0.20;;
37777;SDS011;23615;51.506;7.678;2024-03-02T03:27:35;0.20;;;0.20;;
37777;SDS011;23615;51.506;7.678;2024-03-02T03:30:00;0.60;;;0.30;;
37777;SDS011;23615;51.506;7.678;2024-03-02T03:32:26;0.30;;;0.20;;
37777;SDS011;23615;51.506;7.678;2024-03-02T03:34:51;0.80;;;0.17;;
37777;SDS011;23615;51.506;7.678;2024-03-02T03:37:16;0.47;;;0.20;;
37777;SDS011;23615;51.506;7.678;2024-03-02T03:39:42;0.57;;;0.20;;
37777;SDS011;23615;51.506;7.678;2024-03-02T03:42:07;1.10;;;0.30;;
37777;SDS011;23615;51.506;7.678;2024-03-02T03:44:32;0.70;;;0.28;;
37777;SDS011;23615;51.506;7.678;2024-03-02T03:46:58;0.45;;;0.20;;
37777;SDS011;23615;51.506;7.678;2024-03-02T03:49:24;0.30;;;0.20;;
37777;SDS011;23615;51.506;7.678;2024-03-02T03:51:49;0.10;;;0.10;;
37777;SDS011;23615;51.506;7.678;2024-03-02T03:54:14;0.20;;;0.20;;
37777;SDS011;23615;51.506;7.678;2024-03-02T03:56:39;0.40;;;0.20;;
37777;SDS011;23615;51.506;7.678;2024-03-02T03:59:05;2.00;;;0.40;;
37777;SDS011;23615;51.506;7.678;2024-03-02T04:01:30;1.77;;;0.50;;
37777;SDS011;23615;51.506;7.678;2024-03-02T04:03:56;0.70;;;0.28;;
37777;SDS011;23615;51.506;7.678;2024-03-02T04:06:22;0.17;;;0.10;;
37777;SDS011;23615;51.506;7.678;2024-03-02T04:08:47;1.43;;;0.60;;
37777;SDS011;23615;51.506;7.678;2024-03-02T04:11:13;0.80;;;0.40;;
37777;SDS011;23615;51.506;7.678;2024-03-02T04:13:38;0.80;;;0.30;;
37777;SDS011;23615;51.506;7.678;2024-03-02T04:16:04;0.83;;;0.30;;
37777;SDS011;23615;51.506;7.678;2024-03-02T04:18:30;0.45;;;0.40;;
37777;SDS011;23615;51.506;7.678;2024-03-02T04:20:55;1.00;;;0.50;;
37777;SDS011;23615;51.506;7.678;2024-03-02T04:23:21;0.93;;;0.40;;
37777;SDS011;23615;51.506;7.678;2024-03-02T04:25:46;0.50;;;0.30;;
37777;SDS011;23615;51.506;7.678;2024-03-02T04:28:11;0.33;;;0.33;;
37777;SDS011;23615;51.506;7.678;2024-03-02T04:30:37;0.37;;;0.20;;
37777;SDS011;23615;51.506;7.678;2024-03-02T04:33:03;0.70;;;0.20;;
37777;SDS011;23615;51.506;7.678;2024-03-02T04:35:28;0.85;;;0.35;;
37777;SDS011;23615;51.506;7.678;2024-03-02T04:37:54;0.30;;;0.30;;
37777;SDS011;23615;51.506;7.678;2024-03-02T04:40:19;0.63;;;0.30;;
37777;SDS011;23615;51.506;7.678;2024-03-02T04:42:44;1.00;;;0.40;;
37777;SDS011;23615;51.506;7.678;2024-03-02T04:45:10;2.47;;;0.50;;
37777;SDS011;23615;51.506;7.678;2024-03-02T04:47:35;0.93;;;0.30;;
37777;SDS011;23615;51.506;7.678;2024-03-02T04:50:00;0.43;;;0.30;;
37777;SDS011;23615;51.506;7.678;2024-03-02T04:52:26;0.43;;;0.30;;
37777;SDS011;23615;51.506;7.678;2024-03-02T04:54:51;0.70;;;0.30;;
37777;SDS011;23615;51.506;7.678;2024-03-02T04:57:42;0.30;;;0.30;;
37777;SDS011;23615;51.506;7.678;2024-03-02T05:00:08;0.50;;;0.30;;
37777;SDS011;23615;51.506;7.678;2024-03-02T05:02:34;0.40;;;0.30;;
37777;SDS011;23615;51.506;7.678;2024-03-02T05:04:59;0.35;;;0.35;;
37777;SDS011;23615;51.506;7.678;2024-03-02T05:07:25;0.32;;;0.22;;
37777;SDS011;23615;51.506;7.678;2024-03-02T05:09:50;0.20;;;0.20;;
37777;SDS011;23615;51.506;7.678;2024-03-02T05:12:16;0.45;;;0.20;;
37777;SDS011;23615;51.506;7.678;2024-03-02T05:15:00;0.75;;;0.30;;
37777;SDS011;23615;51.506;7.678;2024-03-02T05:17:26;0.73;;;0.30;;
37777;SDS011;23615;51.506;7.678;2024-03-02T05:19:52;0.27;;;0.20;;
37777;SDS011;23615;51.506;7.678;2024-03-02T05:22:17;0.67;;;0.30;;
37777;SDS011;23615;51.506;7.678;2024-03-02T05:24:43;0.63;;;0.30;;
37777;SDS011;23615;51.506;7.678;2024-03-02T05:27:08;0.37;;;0.23;;
37777;SDS011;23615;51.506;7.678;2024-03-02T05:29:33;0.30;;;0.20;;
37777;SDS011;23615;51.506;7.678;2024-03-02T05:31:59;2.97;;;0.70;;
37777;SDS011;23615;51.506;7.678;2024-03-02T05:34:24;1.20;;;0.73;;
37777;SDS011;23615;51.506;7.678;2024-03-02T05:36:49;0.47;;;0.40;;
37777;SDS011;23615;51.506;7.678;2024-03-02T05:39:14;0.45;;;0.30;;
37777;SDS011;23615;51.506;7.678;2024-03-02T05:41:40;0.57;;;0.40;;
37777;SDS011;23615;51.506;7.678;2024-03-02T05:44:06;0.63;;;0.30;;
37777;SDS011;23615;51.506;7.678;2024-03-02T05:46:31;1.00;;;0.50;;
37777;SDS011;23615;51.506;7.678;2024-03-02T05:48:56;0.80;;;0.40;;
37777;SDS011;23615;51.506;7.678;2024-03-02T05:51:22;0.60;;;0.20;;
37777;SDS011;23615;51.506;7.678;2024-03-02T05:53:47;0.20;;;0.20;;
37777;SDS011;23615;51.506;7.678;2024-03-02T05:56:12;0.70;;;0.30;;
37777;SDS011;23615;51.506;7.678;2024-03-02T05:58:38;0.37;;;0.37;;
37777;SDS011;23615;51.506;7.678;2024-03-02T06:01:22;0.30;;;0.30;;
37777;SDS011;23615;51.506;7.678;2024-03-02T06:03:53;0.50;;;0.40;;
37777;SDS011;23615;51.506;7.678;2024-03-02T06:06:19;0.30;;;0.30;;
37777;SDS011;23615;51.506;7.678;2024-03-02T06:08:44;0.60;;;0.40;;
37777;SDS011;23615;51.506;7.678;2024-03-02T06:11:09;0.80;;;0.30;;
37777;SDS011;23615;51.506;7.678;2024-03-02T06:13:34;0.60;;;0.30;;
37777;SDS011;23615;51.506;7.678;2024-03-02T06:16:00;0.90;;;0.60;;
37777;SDS011;23615;51.506;7.678;2024-03-02T06:18:25;1.27;;;0.35;;
37777;SDS011;23615;51.506;7.678;2024-03-02T06:20:50;0.60;;;0.40;;
37777;SDS011;23615;51.506;7.678;2024-03-02T06:23:16;1.10;;;0.43;;
37777;SDS011;23615;51.506;7.678;2024-03-02T06:25:41;0.93;;;0.50;;
37777;SDS011;23615;51.506;7.678;2024-03-02T06:28:06;1.70;;;0.50;;
37777;SDS011;23615;51.506;7.678;2024-03-02T06:30:32;0.97;;;0.50;;
37777;SDS011;23615;51.506;7.678;2024-03-02T06:32:57;1.00;;;0.70;;
37777;SDS011;23615;51.506;7.678;2024-03-02T06:35:23;1.50;;;0.73;;
37777;SDS011;23615;51.506;7.678;2024-03-02T06:37:48;0.90;;;0.60;;
37777;SDS011;23615;51.506;7.678;2024-03-02T06:40:13;0.70;;;0.50;;
37777;SDS011;23615;51.506;7.678;2024-03-02T06:42:39;1.20;;;0.50;;
37777;SDS011;23615;51.506;7.678;2024-03-02T06:45:04;0.97;;;0.70;;
37777;SDS011;23615;51.506;7.678;2024-03-02T06:47:30;0.50;;;0.40;;
37777;SDS011;23615;51.506;7.678;2024-03-02T06:49:55;1.53;;;0.60;;
37777;SDS011;23615;51.506;7.678;2024-03-02T06:52:22;0.88;;;0.68;;
37777;SDS011;23615;51.506;7.678;2024-03-02T06:54:47;1.02;;;0.68;;
37777;SDS011;23615;51.506;7.678;2024-03-02T06:57:13;0.77;;;0.60;;
37777;SDS011;23615;51.506;7.678;2024-03-02T06:59:38;2.30;;;0.63;;
37777;SDS011;23615;51.506;7.678;2024-03-02T07:02:03;0.77;;;0.67;;
37777;SDS011;23615;51.506;7.678;2024-03-02T07:04:29;1.40;;;0.80;;
37777;SDS011;23615;51.506;7.678;2024-03-02T07:06:54;1.10;;;0.80;;
37777;SDS011;23615;51.506;7.678;2024-03-02T07:09:20;1.13;;;0.80;;
37777;SDS011;23615;51.506;7.678;2024-03-02T07:11:48;1.48;;;0.98;;
37777;SDS011;23615;51.506;7.678;2024-03-02T07:14:13;2.37;;;1.13;;
37777;SDS011;23615;51.506;7.678;2024-03-02T07:16:38;2.70;;;1.53;;
37777;SDS011;23615;51.506;7.678;2024-03-02T07:19:05;1.57;;;1.37;;
37777;SDS011;23615;51.506;7.678;2024-03-02T07:21:31;3.38;;;1.50;;
37777;SDS011;23615;51.506;7.678;2024-03-02T07:23:57;3.00;;;1.67;;
37777;SDS011;23615;51.506;7.678;2024-03-02T07:26:23;2.77;;;1.40;;
37777;SDS011;23615;51.506;7.678;2024-03-02T07:28:49;2.40;;;1.47;;
37777;SDS011;23615;51.506;7.678;2024-03-02T07:31:14;2.87;;;2.00;;
37777;SDS011;23615;51.506;7.678;2024-03-02T07:33:40;2.28;;;1.58;;
37777;SDS011;23615;51.506;7.678;2024-03-02T07:36:05;3.67;;;1.90;;
37777;SDS011;23615;51.506;7.678;2024-03-02T07:38:31;2.50;;;1.53;;
37777;SDS011;23615;51.506;7.678;2024-03-02T07:40:58;1.83;;;1.45;;
37777;SDS011;23615;51.506;7.678;2024-03-02T07:43:25;4.57;;;1.45;;
37777;SDS011;23615;51.506;7.678;2024-03-02T07:45:50;2.53;;;1.40;;
37777;SDS011;23615;51.506;7.678;2024-03-02T07:48:16;2.50;;;1.70;;
37777;SDS011;23615;51.506;7.678;2024-03-02T07:50:41;2.07;;;1.10;;
37777;SDS011;23615;51.506;7.678;2024-03-02T07:53:08;1.85;;;0.93;;
37777;SDS011;23615;51.506;7.678;2024-03-02T07:55:33;1.42;;;1.13;;
37777;SDS011;23615;51.506;7.678;2024-03-02T07:58:00;1.25;;;1.05;;
37777;SDS011;23615;51.506;7.678;2024-03-02T08:00:26;1.75;;;0.88;;
37777;SDS011;23615;51.506;7.678;2024-03-02T08:02:52;1.38;;;0.98;;
37777;SDS011;23615;51.506;7.678;2024-03-02T08:05:17;2.10;;;1.47;;
37777;SDS011;23615;51.506;7.678;2024-03-02T08:07:44;2.05;;;1.65;;
37777;SDS011;23615;51.506;7.678;2024-03-02T08:10:10;2.27;;;1.40;;
37777;SDS011;23615;51.506;7.678;2024-03-02T08:12:36;2.33;;;1.27;;
37777;SDS011;23615;51.506;7.678;2024-03-02T08:15:01;2.63;;;1.70;;
37777;SDS011;23615;51.506;7.678;2024-03-02T08:17:26;2.17;;;1.33;;
37777;SDS011;23615;51.506;7.678;2024-03-02T08:19:52;3.13;;;1.30;;
37777;SDS011;23615;51.506;7.678;2024-03-02T08:22:18;1.80;;;1.40;;
37777;SDS011;23615;51.506;7.678;2024-03-02T08:24:44;2.08;;;1.60;;
37777;SDS011;23615;51.506;7.678;2024-03-02T08:27:09;1.20;;;1.08;;
37777;SDS011;23615;51.506;7.678;2024-03-02T08:29:35;2.17;;;1.10;;
37777;SDS011;23615;51.506;7.678;2024-03-02T08:32:00;1.93;;;1.10;;
37777;SDS011;23615;51.506;7.678;2024-03-02T08:34:25;0.97;;;0.87;;
37777;SDS011;23615;51.506;7.678;2024-03-02T08:36:51;1.77;;;1.23;;
37777;SDS011;23615;51.506;7.678;2024-03-02T08:39:16;3.13;;;1.03;;
37777;SDS011;23615;51.506;7.678;2024-03-02T08:41:44;2.20;;;1.15;;
37777;SDS011;23615;51.506;7.678;2024-03-02T08:44:09;1.70;;;1.15;;
37777;SDS011;23615;51.506;7.678;2024-03-02T08:46:35;2.30;;;1.20;;
37777;SDS011;23615;51.506;7.678;2024-03-02T08:49:01;1.33;;;1.00;;
37777;SDS011;23615;51.506;7.678;2024-03-02T08:51:26;2.03;;;1.03;;
37777;SDS011;23615;51.506;7.678;2024-03-02T08:53:52;1.97;;;0.93;;
37777;SDS011;23615;51.506;7.678;2024-03-02T08:56:17;1.83;;;1.10;;
37777;SDS011;23615;51.506;7.678;2024-03-02T08:58:42;2.67;;;1.40;;
37777;SDS011;23615;51.506;7.678;2024-03-02T09:01:08;2.78;;;1.30;;
37777;SDS011;23615;51.506;7.678;2024-03-02T09:03:34;3.33;;;1.50;;
37777;SDS011;23615;51.506;7.678;2024-03-02T09:06:00;2.25;;;1.05;;
37777;SDS011;23615;51.506;7.678;2024-03-02T09:08:25;2.90;;;1.57;;
37777;SDS011;23615;51.506;7.678;2024-03-02T09:10:51;7.03;;;1.97;;
37777;SDS011;23615;51.506;7.678;2024-03-02T09:13:17;1.43;;;1.13;;
37777;SDS011;23615;51.506;7.678;2024-03-02T09:15:42;1.00;;;0.90;;
37777;SDS011;23615;51.506;7.678;2024-03-02T09:18:09;1.42;;;0.88;;
37777;SDS011;23615;51.506;7.678;2024-03-02T09:20:34;1.63;;;1.20;;
37777;SDS011;23615;51.506;7.678;2024-03-02T09:23:00;2.03;;;1.50;;
37777;SDS011;23615;51.506;7.678;2024-03-02T09:25:25;1.70;;;0.97;;
37777;SDS011;23615;51.506;7.678;2024-03-02T09:27:50;2.13;;;1.00;;
37777;SDS011;23615;51.506;7.678;2024-03-02T09:30:16;1.87;;;0.87;;
37777;SDS011;23615;51.506;7.678;2024-03-02T09:32:41;1.20;;;0.80;;
37777;SDS011;23615;51.506;7.678;2024-03-02T09:35:07;1.50;;;0.67;;
37777;SDS011;23615;51.506;7.678;2024-03-02T09:37:32;1.67;;;0.60;;
37777;SDS011;23615;51.506;7.678;2024-03-02T09:39:57;3.80;;;1.10;;
37777;SDS011;23615;51.506;7.678;2024-03-02T09:42:23;1.08;;;0.55;;
37777;SDS011;23615;51.506;7.678;2024-03-02T09:44:49;1.48;;;0.55;;
37777;SDS011;23615;51.506;7.678;2024-03-02T09:47:14;1.27;;;0.60;;
37777;SDS011;23615;51.506;7.678;2024-03-02T09:49:40;0.60;;;0.50;;
37777;SDS011;23615;51.506;7.678;2024-03-02T09:52:05;2.30;;;0.70;;
37777;SDS011;23615;51.506;7.678;2024-03-02T09:54:31;0.50;;;0.40;;
37777;SDS011;23615;51.506;7.678;2024-03-02T09:56:57;1.77;;;0.80;;
37777;SDS011;23615;51.506;7.678;2024-03-02T09:59:22;1.30;;;0.40;;
37777;SDS011;23615;51.506;7.678;2024-03-02T10:02:00;1.20;;;0.47;;
37777;SDS011;23615;51.506;7.678;2024-03-02T10:04:27;0.52;;;0.30;;
37777;SDS011;23615;51.506;7.678;2024-03-02T10:07:09;0.80;;;0.40;;
37777;SDS011;23615;51.506;7.678;2024-03-02T10:09:35;0.95;;;0.35;;
37777;SDS011;23615;51.506;7.678;2024-03-02T10:12:04;0.77;;;0.33;;
37777;SDS011;23615;51.506;7.678;2024-03-02T10:14:31;1.88;;;0.35;;
37777;SDS011;23615;51.506;7.678;2024-03-02T10:17:01;0.90;;;0.30;;
37777;SDS011;23615;51.506;7.678;2024-03-02T10:19:30;0.47;;;0.20;;
37777;SDS011;23615;51.506;7.678;2024-03-02T10:22:00;2.50;;;0.30;;
37777;SDS011;23615;51.506;7.678;2024-03-02T10:24:26;1.00;;;0.20;;
37777;SDS011;23615;51.506;7.678;2024-03-02T10:26:52;0.30;;;0.20;;
37777;SDS011;23615;51.506;7.678;2024-03-02T10:29:18;1.10;;;0.30;;
37777;SDS011;23615;51.506;7.678;2024-03-02T10:31:44;0.30;;;0.20;;
37777;SDS011;23615;51.506;7.678;2024-03-02T10:34:11;0.50;;;0.20;;
37777;SDS011;23615;51.506;7.678;2024-03-02T10:36:37;0.33;;;0.20;;
37777;SDS011;23615;51.506;7.678;2024-03-02T10:39:06;0.98;;;0.30;;
37777;SDS011;23615;51.506;7.678;2024-03-02T10:41:33;0.90;;;0.20;;
37777;SDS011;23615;51.506;7.678;2024-03-02T10:44:02;0.63;;;0.20;;
37777;SDS011;23615;51.506;7.678;2024-03-02T10:46:33;0.70;;;0.20;;
37777;SDS011;23615;51.506;7.678;2024-03-02T10:49:00;0.68;;;0.20;;
37777;SDS011;23615;51.506;7.678;2024-03-02T10:51:27;0.22;;;0.10;;
37777;SDS011;23615;51.506;7.678;2024-03-02T10:53:56;0.30;;;0.13;;
37777;SDS011;23615;51.506;7.678;2024-03-02T10:59:06;0.60;;;0.10;;
37777;SDS011;23615;51.506;7.678;2024-03-02T11:01:58;0.60;;;0.10;;
37777;SDS011;23615;51.506;7.678;2024-03-02T11:04:26;0.10;;;0.10;;
37777;SDS011;23615;51.506;7.678;2024-03-02T11:06:58;0.60;;;0.20;;
37777;SDS011;23615;51.506;7.678;2024-03-02T11:09:26;0.40;;;0.10;;
37777;SDS011;23615;51.506;7.678;2024-03-02T11:11:56;0.30;;;0.20;;
37777;SDS011;23615;51.506;7.678;2024-03-02T11:14:28;1.17;;;0.10;;
37777;SDS011;23615;51.506;7.678;2024-03-02T11:16:56;0.10;;;0.10;;
37777;SDS011;23615;51.506;7.678;2024-03-02T11:19:22;0.80;;;0.20;;
37777;SDS011;23615;51.506;7.678;2024-03-02T11:21:49;0.30;;;0.10;;
37777;SDS011;23615;51.506;7.678;2024-03-02T11:26:46;0.50;;;0.10;;
37777;SDS011;23615;51.506;7.678;2024-03-02T11:29:57;0.70;;;0.10;;
37777;SDS011;23615;51.506;7.678;2024-03-02T11:32:00;0.55;;;0.10;;
37777;SDS011;23615;51.506;7.678;2024-03-02T11:36:56;0.40;;;0.10;;
37777;SDS011;23615;51.506;7.678;2024-03-02T11:39:28;0.10;;;0.10;;
37777;SDS011;23615;51.506;7.678;2024-03-02T11:41:54;0.68;;;0.10;;
37777;SDS011;23615;51.506;7.678;2024-03-02T11:44:20;0.30;;;0.00;;
37777;SDS011;23615;51.506;7.678;2024-03-02T11:46:46;2.42;;;0.10;;
37777;SDS011;23615;51.506;7.678;2024-03-02T11:49:26;1.95;;;0.15;;
37777;SDS011;23615;51.506;7.678;2024-03-02T11:52:02;0.30;;;0.20;;
37777;SDS011;23615;51.506;7.678;2024-03-02T11:54:29;0.45;;;0.15;;
37777;SDS011;23615;51.506;7.678;2024-03-02T11:56:58;0.20;;;0.10;;
37777;SDS011;23615;51.506;7.678;2024-03-02T11:59:24;0.50;;;0.10;;
37777;SDS011;23615;51.506;7.678;2024-03-02T12:01:51;1.20;;;0.20;;
37777;SDS011;23615;51.506;7.678;2024-03-02T12:04:16;0.37;;;0.10;;
37777;SDS011;23615;51.506;7.678;2024-03-02T12:06:43;1.55;;;0.30;;
37777;SDS011;23615;51.506;7.678;2024-03-02T12:09:09;0.35;;;0.10;;
37777;SDS011;23615;51.506;7.678;2024-03-02T12:11:37;1.70;;;0.20;;
37777;SDS011;23615;51.506;7.678;2024-03-02T12:14:02;0.33;;;0.10;;
37777;SDS011;23615;51.506;7.678;2024-03-02T12:16:29;0.20;;;0.10;;
37777;SDS011;23615;51.506;7.678;2024-03-02T12:18:54;0.30;;;0.10;;
37777;SDS011;23615;51.506;7.678;2024-03-02T12:21:20;0.30;;;0.08;;
37777;SDS011;23615;51.506;7.678;2024-03-02T12:23:46;0.13;;;0.00;;
37777;SDS011;23615;51.506;7.678;2024-03-02T12:26:11;1.37;;;0.10;;
37777;SDS011;23615;51.506;7.678;2024-03-02T12:28:36;0.03;;;0.00;;
37777;SDS011;23615;51.506;7.678;2024-03-02T12:31:02;1.00;;;0.10;;
37777;SDS011;23615;51.506;7.678;2024-03-02T12:33:28;0.10;;;0.10;;
37777;SDS011;23615;51.506;7.678;2024-03-02T12:35:56;0.80;;;0.10;;
37777;SDS011;23615;51.506;7.678;2024-03-02T12:38:22;0.28;;;0.10;;
37777;SDS011;23615;51.506;7.678;2024-03-02T12:40:50;0.15;;;0.10;;
37777;SDS011;23615;51.506;7.678;2024-03-02T12:43:17;0.35;;;0.00;;
37777;SDS011;23615;51.506;7.678;2024-03-02T12:45:42;1.67;;;0.20;;
37777;SDS011;23615;51.506;7.678;2024-03-02T12:48:08;0.10;;;0.00;;
37777;SDS011;23615;51.506;7.678;2024-03-02T12:50:33;0.03;;;0.00;;
37777;SDS011;23615;51.506;7.678;2024-03-02T12:52:59;0.10;;;0.10;;
37777;SDS011;23615;51.506;7.678;2024-03-02T12:55:24;0.20;;;0.00;;
37777;SDS011;23615;51.506;7.678;2024-03-02T12:57:52;0.30;;;0.20;;
37777;SDS011;23615;51.506;7.678;2024-03-02T13:00:19;1.25;;;0.20;;
37777;SDS011;23615;51.506;7.678;2024-03-02T13:02:45;0.10;;;0.10;;
37777;SDS011;23615;51.506;7.678;2024-03-02T13:05:11;0.40;;;0.10;;
37777;SDS011;23615;51.506;7.678;2024-03-02T13:07:37;0.47;;;0.17;;
37777;SDS011;23615;51.506;7.678;2024-03-02T13:10:03;0.22;;;0.13;;
37777;SDS011;23615;51.506;7.678;2024-03-02T13:12:30;1.33;;;0.10;;
37777;SDS011;23615;51.506;7.678;2024-03-02T13:14:57;0.38;;;0.10;;
37777;SDS011;23615;51.506;7.678;2024-03-02T13:17:24;0.70;;;0.10;;
37777;SDS011;23615;51.506;7.678;2024-03-02T13:19:53;0.27;;;0.10;;
37777;SDS011;23615;51.506;7.678;2024-03-02T13:22:19;0.45;;;0.20;;
37777;SDS011;23615;51.506;7.678;2024-03-02T13:24:44;0.50;;;0.10;;
37777;SDS011;23615;51.506;7.678;2024-03-02T13:27:10;0.70;;;0.10;;
37777;SDS011;23615;51.506;7.678;2024-03-02T13:29:35;0.20;;;0.10;;
37777;SDS011;23615;51.506;7.678;2024-03-02T13:32:00;0.70;;;0.20;;
37777;SDS011;23615;51.506;7.678;2024-03-02T13:34:26;0.50;;;0.10;;
37777;SDS011;23615;51.506;7.678;2024-03-02T13:36:51;0.23;;;0.20;;
37777;SDS011;23615;51.506;7.678;2024-03-02T13:39:16;3.40;;;0.33;;
37777;SDS011;23615;51.506;7.678;2024-03-02T13:41:41;0.30;;;0.20;;
37777;SDS011;23615;51.506;7.678;2024-03-02T13:44:09;0.13;;;0.03;;
37777;SDS011;23615;51.506;7.678;2024-03-02T13:46:34;0.20;;;0.00;;
37777;SDS011;23615;51.506;7.678;2024-03-02T13:49:00;0.10;;;0.10;;
37777;SDS011;23615;51.506;7.678;2024-03-02T13:51:26;0.20;;;0.10;;
37777;SDS011;23615;51.506;7.678;2024-03-02T13:53:52;0.10;;;0.10;;
37777;SDS011;23615;51.506;7.678;2024-03-02T13:56:17;0.23;;;0.10;;
37777;SDS011;23615;51.506;7.678;2024-03-02T13:58:43;0.90;;;0.20;;
37777;SDS011;23615;51.506;7.678;2024-03-02T14:01:08;1.50;;;0.13;;
37777;SDS011;23615;51.506;7.678;2024-03-02T14:03:34;0.40;;;0.10;;
37777;SDS011;23615;51.506;7.678;2024-03-02T14:05:59;5.83;;;0.40;;
37777;SDS011;23615;51.506;7.678;2024-03-02T14:08:25;0.43;;;0.20;;
37777;SDS011;23615;51.506;7.678;2024-03-02T14:10:50;0.40;;;0.30;;
37777;SDS011;23615;51.506;7.678;2024-03-02T14:13:15;3.80;;;0.20;;
37777;SDS011;23615;51.506;7.678;2024-03-02T14:15:41;0.63;;;0.20;;
37777;SDS011;23615;51.506;7.678;2024-03-02T14:18:07;0.20;;;0.20;;
37777;SDS011;23615;51.506;7.678;2024-03-02T14:20:35;0.30;;;0.10;;
37777;SDS011;23615;51.506;7.678;2024-03-02T14:23:00;0.28;;;0.20;;
37777;SDS011;23615;51.506;7.678;2024-03-02T14:25:27;0.30;;;0.10;;
37777;SDS011;23615;51.506;7.678;2024-03-02T14:27:56;0.20;;;0.20;;
37777;SDS011;23615;51.506;7.678;2024-03-02T14:30:22;0.10;;;0.10;;
37777;SDS011;23615;51.506;7.678;2024-03-02T14:32:48;0.23;;;0.10;;
37777;SDS011;23615;51.506;7.678;2024-03-02T14:35:13;0.20;;;0.10;;
37777;SDS011;23615;51.506;7.678;2024-03-02T14:37:38;0.30;;;0.15;;
37777;SDS011;23615;51.506;7.678;2024-03-02T14:40:04;1.23;;;0.50;;
37777;SDS011;23615;51.506;7.678;2024-03-02T14:42:31;0.40;;;0.10;;
37777;SDS011;23615;51.506;7.678;2024-03-02T14:44:56;0.28;;;0.20;;
37777;SDS011;23615;51.506;7.678;2024-03-02T14:47:22;0.50;;;0.20;;
37777;SDS011;23615;51.506;7.678;2024-03-02T14:49:47;0.20;;;0.10;;
37777;SDS011;23615;51.506;7.678;2024-03-02T14:52:13;0.20;;;0.17;;
37777;SDS011;23615;51.506;7.678;2024-03-02T14:54:39;0.57;;;0.20;;